Pagrindinis puslapis
METAR-TAF:

METAR-TAF

Oro uostai :

Edremit, Turkija

platuma: 39-33-16N, ilguma: 27-00-49E, Aukštis: 15 m

Dabartinis oras

Ataskaita buvo paskelbta 35 minutes, ne 03:50 UTC
Vėjas 5 kt iš Šiaurės Rytų
Temperatūra 3°C
Drėgmė 93%
Slėgis 1016 hPa
Matomumas 10 km arba daugiau
Mažai debesys ne aukštis 1000 ft

METAR: LTFD 010350Z 05005KT 9999 FEW010 03/02 Q1016

Laikas: 07:25 (04:25 UTC)

Prognozė

Ataskaita buvo paskelbta 2 valandos ir 45 minutes, ne 01:40 UTC
Prognozė galioja nuo 01 metu 03 UTC su 01 metu 12 UTC
Vėjas 6 kt iš Rytų
Matomumas 10 km arba daugiau
Mažai debesys ne aukštis 3500 ft

TAF: LTFD 010140Z 0103/0112 08006KT 9999 FEW035

Orai ataskaitas ir orų prognozės (METAR, TAF).

turimą stotys yra geltonos ir raudonos taškus žemėlapyje.

Perkelti pele per norėdami pamatyti stoties vardą.

Tada spustelėkite, norėdami matyti oro stebėjimo ir prognozės.

Norėdami pakeisti žemėlapį: spustelėkite ant žalios mygtukų su juodo kryžiaus žemyn,; žalią mygtuką su brūkšneliu, jei norite nutolinti; arba žalių rodyklių gretimoms žemėlapius.


METAR-TAF: